Mc Coll, South Carolina
Current Conditions -  °F | °C
As of 8:15 PM on Tuesday 21 Oct 2014 (Local Time) from KBBP Reporting Station
Broken Clouds Broken Clouds  
Wind Chill: 61°   Ceiling: 6500
Heat Index: 61°   Visibility: 10mi
Dew Point: 46°   Wind: 0mph
Humidity: 59%   Direction: NA
Pressure: 29.88"   Gusts: NA
Location:  34.6798°N, 79.5817°W
Report Text: KBBP 220015Z AUTO 00000KT 10SM BKN065 16/08 A2988 RMK AO2
Loading
Personal Weather Stations






























Interactive Weather Map
Tropical Storm Tracking
New forecast layout! Learn more

10-Day Weather Forecast

Advertisements
Track Severe Weather on mobile